Crystal Island — 3EZJ3 — position and weather

sailwx.info

Track history (hours):
 
Tides and Currents Weather Stations Pressure Air Temp Water Temp Dewpoint Dewpoint Depression Visibility Wind Speed Wind Dir Waves Ship Positions

Crystal Island

Last reported at 2015-Mar-26 16:03 UTC. Time now 2015-Apr-21 08:16 UTC.
Position N 01°16' E 104°13'.
Warning: this ship's position is 25 days out of date.

Length 169 m; draft 10 m.

Type: Cargo ship. MMSI: 372562000.

Date/timePositionNaut miles runAvg speedWind from/ knotsBaromVisibWave heightAir tempDewpointWater temp
2015-Mar-26 16:03N 01°16' E 104°13'611.5
2015-Mar-26 15:31N 01°15' E 104°07'1111.2
2015-Mar-26 14:33N 01°14' E 103°57'9 8.6
2015-Mar-26 13:33N 01°13' E 103°48'7 1.5
2015-Mar-26 08:25N 01°18' E 103°43'0 0.0
2015-Mar-26 03:28N 01°18' E 103°43'0 0.0
2015-Mar-25 21:13N 01°18' E 103°43'0 0.0
2015-Mar-25 02:08N 01°18' E 103°43'  
2015-Mar-22 17:05N 01°18' E 103°44'3 5.6
2015-Mar-22 16:33N 01°16' E 103°46'9 9.0
2015-Mar-22 15:33N 01°14' E 103°55'2 1.9
2015-Mar-22 14:31N 01°16' E 103°54'0 0.0
2015-Mar-22 13:31N 01°16' E 103°54'0 0.1
2015-Mar-22 12:31N 01°16' E 103°54'0 0.1
2015-Mar-22 11:31N 01°16' E 103°54'0 0.0
2015-Mar-22 09:13N 01°16' E 103°54'0 0.2
2015-Mar-22 08:25N 01°16' E 103°54'0 0.1
2015-Mar-22 07:25N 01°16' E 103°54'0 0.1
2015-Mar-22 06:31N 01°16' E 103°54'0 0.1
2015-Mar-22 05:31N 01°16' E 103°54'0 0.0
2015-Mar-22 04:28N 01°16' E 103°54'0 0.0
2015-Mar-22 03:31N 01°16' E 103°54'0 0.0
2015-Mar-22 02:31N 01°16' E 103°54'0 0.0
2015-Mar-22 01:22N 01°16' E 103°54'0 0.2
2015-Mar-22 00:31N 01°16' E 103°54'0 0.0
2015-Mar-21 23:31N 01°16' E 103°54'0 0.0
2015-Mar-21 22:31N 01°16' E 103°54'0 0.0
2015-Mar-21 21:25N 01°16' E 103°54'0 0.0
2015-Mar-21 20:25N 01°16' E 103°54'0 0.0
2015-Mar-21 19:31N 01°16' E 103°54'0 0.1
2015-Mar-21 18:33N 01°16' E 103°54'0 0.1
2015-Mar-21 17:33N 01°16' E 103°54'0 0.1
2015-Mar-21 16:33N 01°16' E 103°54'0 0.0
2015-Mar-21 15:33N 01°16' E 103°54'0 0.0
2015-Mar-21 14:33N 01°16' E 103°54'0 0.0
2015-Mar-21 13:33N 01°16' E 103°54'0 0.0
2015-Mar-21 12:33N 01°16' E 103°54'0 0.1
2015-Mar-21 11:33N 01°16' E 103°54'0 0.1
2015-Mar-21 10:33N 01°16' E 103°54'0 0.1
2015-Mar-21 09:33N 01°16' E 103°54'0 0.0
2015-Mar-21 08:33N 01°16' E 103°54'0 0.0
2015-Mar-21 07:31N 01°16' E 103°54'0 0.0
2015-Mar-21 06:33N 01°16' E 103°54'0 0.2
2015-Mar-21 05:33N 01°16' E 103°54'0 0.0
2015-Mar-21 04:33N 01°16' E 103°54'0 0.0
2015-Mar-21 03:33N 01°16' E 103°54'0 0.0
2015-Mar-21 02:33N 01°16' E 103°54'0 0.0
2015-Mar-21 01:33N 01°16' E 103°54'0 0.0
2015-Mar-21 00:33N 01°16' E 103°54'0 0.0
2015-Mar-20 23:33N 01°16' E 103°54'0 0.1
2015-Mar-20 22:33N 01°16' E 103°54'0 0.1
2015-Mar-20 21:31N 01°16' E 103°54'0 0.0
2015-Mar-20 20:33N 01°16' E 103°54'0 0.0
2015-Mar-20 19:28N 01°16' E 103°54'0 0.0
2015-Mar-20 18:33N 01°16' E 103°54'0 0.2
2015-Mar-20 17:33N 01°16' E 103°54'0 0.0
2015-Mar-20 16:32N 01°16' E 103°54'0 0.0
2015-Mar-20 15:31N 01°16' E 103°54'0 0.0
2015-Mar-20 14:33N 01°16' E 103°54'0 0.0
2015-Mar-20 13:33N 01°16' E 103°54'0 0.0
2015-Mar-20 12:33N 01°16' E 103°54'0 0.1
2015-Mar-20 11:33N 01°16' E 103°54'0 0.1
2015-Mar-20 10:32N 01°16' E 103°54'0 0.1
2015-Mar-20 09:32N 01°16' E 103°54'0 0.1
2015-Mar-20 08:33N 01°16' E 103°54'0 0.0
2015-Mar-20 07:33N 01°16' E 103°54'0 0.0
2015-Mar-20 06:33N 01°16' E 103°54'0 0.0
2015-Mar-20 05:32N 01°16' E 103°54'0 0.1
2015-Mar-20 04:33N 01°16' E 103°54'0 0.0
2015-Mar-20 03:33N 01°16' E 103°54'0 0.0
2015-Mar-20 02:33N 01°16' E 103°54'0 0.0
2015-Mar-20 01:33N 01°16' E 103°54'0 0.0
2015-Mar-20 00:33N 01°16' E 103°54'0 0.0
2015-Mar-19 23:33N 01°16' E 103°54'0 0.0
2015-Mar-19 22:33N 01°16' E 103°54'0 0.0
2015-Mar-19 21:33N 01°16' E 103°54'0 0.0
2015-Mar-19 20:33N 01°16' E 103°54'0 0.1
2015-Mar-19 19:33N 01°16' E 103°54'0 0.1
2015-Mar-19 18:33N 01°16' E 103°54'0 0.0
2015-Mar-19 17:33N 01°16' E 103°54'0 0.0
2015-Mar-19 16:33N 01°16' E 103°54'0 0.0
2015-Mar-19 15:33N 01°16' E 103°54'0 0.0
2015-Mar-19 14:33N 01°16' E 103°54'0 0.0
2015-Mar-19 13:32N 01°16' E 103°54'0 0.0
2015-Mar-19 12:33N 01°16' E 103°54'0 0.0
2015-Mar-19 11:33N 01°16' E 103°54'0 0.1
2015-Mar-19 10:31N 01°16' E 103°54'0 0.1
2015-Mar-19 09:30N 01°16' E 103°54'0 0.1
2015-Mar-19 08:33N 01°16' E 103°54'0 0.1
2015-Mar-19 07:33N 01°16' E 103°54'0 0.0
2015-Mar-19 06:33N 01°16' E 103°54'0 0.0
2015-Mar-19 05:33N 01°16' E 103°54'0 0.0
2015-Mar-19 04:33N 01°16' E 103°54'0 0.1
2015-Mar-19 03:33N 01°16' E 103°54'0 0.1
2015-Mar-19 02:33N 01°16' E 103°54'0 0.0
2015-Mar-19 01:33N 01°16' E 103°54'0 0.0
2015-Mar-19 00:32N 01°16' E 103°54'0 0.0
2015-Mar-18 23:33N 01°16' E 103°54'0 0.0
2015-Mar-18 22:33N 01°16' E 103°54'2 1.7
2015-Mar-18 21:33N 01°14' E 103°54'9 8.7
2015-Mar-18 20:32N 01°16' E 104°03'  
Track history (hours):
 
Tides and Currents Weather Stations Pressure Air Temp Water Temp Dewpoint Dewpoint Depression Visibility Wind Speed Wind Dir Waves Ship Positions

Crystal Island

Last reported at 2015-Mar-26 16:03 UTC. Time now 2015-Apr-21 08:16 UTC.
Position N 01°16' E 104°13'.
Warning: this ship's position is 25 days out of date.

Length 169 m; draft 10 m.

Type: Cargo ship. MMSI: 372562000.

Date/timePositionNaut miles runAvg speedWind from/ knotsBaromVisibWave heightAir tempDewpointWater temp
2015-Mar-26 16:03N 01°16' E 104°13'611.5
2015-Mar-26 15:31N 01°15' E 104°07'1111.2
2015-Mar-26 14:33N 01°14' E 103°57'9 8.6
2015-Mar-26 13:33N 01°13' E 103°48'7 1.5
2015-Mar-26 08:25N 01°18' E 103°43'0 0.0
2015-Mar-26 03:28N 01°18' E 103°43'0 0.0
2015-Mar-25 21:13N 01°18' E 103°43'0 0.0
2015-Mar-25 02:08N 01°18' E 103°43'  
2015-Mar-22 17:05N 01°18' E 103°44'3 5.6
2015-Mar-22 16:33N 01°16' E 103°46'9 9.0
2015-Mar-22 15:33N 01°14' E 103°55'2 1.9
2015-Mar-22 14:31N 01°16' E 103°54'0 0.0
2015-Mar-22 13:31N 01°16' E 103°54'0 0.1
2015-Mar-22 12:31N 01°16' E 103°54'0 0.1
2015-Mar-22 11:31N 01°16' E 103°54'0 0.0
2015-Mar-22 09:13N 01°16' E 103°54'0 0.2
2015-Mar-22 08:25N 01°16' E 103°54'0 0.1
2015-Mar-22 07:25N 01°16' E 103°54'0 0.1
2015-Mar-22 06:31N 01°16' E 103°54'0 0.1
2015-Mar-22 05:31N 01°16' E 103°54'0 0.0
2015-Mar-22 04:28N 01°16' E 103°54'0 0.0
2015-Mar-22 03:31N 01°16' E 103°54'0 0.0
2015-Mar-22 02:31N 01°16' E 103°54'0 0.0
2015-Mar-22 01:22N 01°16' E 103°54'0 0.2
2015-Mar-22 00:31N 01°16' E 103°54'0 0.0
2015-Mar-21 23:31N 01°16' E 103°54'0 0.0
2015-Mar-21 22:31N 01°16' E 103°54'0 0.0
2015-Mar-21 21:25N 01°16' E 103°54'0 0.0
2015-Mar-21 20:25N 01°16' E 103°54'0 0.0
2015-Mar-21 19:31N 01°16' E 103°54'0 0.1
2015-Mar-21 18:33N 01°16' E 103°54'0 0.1
2015-Mar-21 17:33N 01°16' E 103°54'0 0.1
2015-Mar-21 16:33N 01°16' E 103°54'0 0.0
2015-Mar-21 15:33N 01°16' E 103°54'0 0.0
2015-Mar-21 14:33N 01°16' E 103°54'0 0.0
2015-Mar-21 13:33N 01°16' E 103°54'0 0.0
2015-Mar-21 12:33N 01°16' E 103°54'0 0.1
2015-Mar-21 11:33N 01°16' E 103°54'0 0.1
2015-Mar-21 10:33N 01°16' E 103°54'0 0.1
2015-Mar-21 09:33N 01°16' E 103°54'0 0.0
2015-Mar-21 08:33N 01°16' E 103°54'0 0.0
2015-Mar-21 07:31N 01°16' E 103°54'0 0.0
2015-Mar-21 06:33N 01°16' E 103°54'0 0.2
2015-Mar-21 05:33N 01°16' E 103°54'0 0.0
2015-Mar-21 04:33N 01°16' E 103°54'0 0.0
2015-Mar-21 03:33N 01°16' E 103°54'0 0.0
2015-Mar-21 02:33N 01°16' E 103°54'0 0.0
2015-Mar-21 01:33N 01°16' E 103°54'0 0.0
2015-Mar-21 00:33N 01°16' E 103°54'0 0.0
2015-Mar-20 23:33N 01°16' E 103°54'0 0.1
2015-Mar-20 22:33N 01°16' E 103°54'0 0.1
2015-Mar-20 21:31N 01°16' E 103°54'0 0.0
2015-Mar-20 20:33N 01°16' E 103°54'0 0.0
2015-Mar-20 19:28N 01°16' E 103°54'0 0.0
2015-Mar-20 18:33N 01°16' E 103°54'0 0.2
2015-Mar-20 17:33N 01°16' E 103°54'0 0.0
2015-Mar-20 16:32N 01°16' E 103°54'0 0.0
2015-Mar-20 15:31N 01°16' E 103°54'0 0.0
2015-Mar-20 14:33N 01°16' E 103°54'0 0.0
2015-Mar-20 13:33N 01°16' E 103°54'0 0.0
2015-Mar-20 12:33N 01°16' E 103°54'0 0.1
2015-Mar-20 11:33N 01°16' E 103°54'0 0.1
2015-Mar-20 10:32N 01°16' E 103°54'0 0.1
2015-Mar-20 09:32N 01°16' E 103°54'0 0.1
2015-Mar-20 08:33N 01°16' E 103°54'0 0.0
2015-Mar-20 07:33N 01°16' E 103°54'0 0.0
2015-Mar-20 06:33N 01°16' E 103°54'0 0.0
2015-Mar-20 05:32N 01°16' E 103°54'0 0.1
2015-Mar-20 04:33N 01°16' E 103°54'0 0.0
2015-Mar-20 03:33N 01°16' E 103°54'0 0.0
2015-Mar-20 02:33N 01°16' E 103°54'0 0.0
2015-Mar-20 01:33N 01°16' E 103°54'0 0.0
2015-Mar-20 00:33N 01°16' E 103°54'0 0.0
2015-Mar-19 23:33N 01°16' E 103°54'0 0.0
2015-Mar-19 22:33N 01°16' E 103°54'0 0.0
2015-Mar-19 21:33N 01°16' E 103°54'0 0.0
2015-Mar-19 20:33N 01°16' E 103°54'0 0.1
2015-Mar-19 19:33N 01°16' E 103°54'0 0.1
2015-Mar-19 18:33N 01°16' E 103°54'0 0.0
2015-Mar-19 17:33N 01°16' E 103°54'0 0.0
2015-Mar-19 16:33N 01°16' E 103°54'0 0.0
2015-Mar-19 15:33N 01°16' E 103°54'0 0.0
2015-Mar-19 14:33N 01°16' E 103°54'0 0.0
2015-Mar-19 13:32N 01°16' E 103°54'0 0.0
2015-Mar-19 12:33N 01°16' E 103°54'0 0.0
2015-Mar-19 11:33N 01°16' E 103°54'0 0.1
2015-Mar-19 10:31N 01°16' E 103°54'0 0.1
2015-Mar-19 09:30N 01°16' E 103°54'0 0.1
2015-Mar-19 08:33N 01°16' E 103°54'0 0.1
2015-Mar-19 07:33N 01°16' E 103°54'0 0.0
2015-Mar-19 06:33N 01°16' E 103°54'0 0.0
2015-Mar-19 05:33N 01°16' E 103°54'0 0.0
2015-Mar-19 04:33N 01°16' E 103°54'0 0.1
2015-Mar-19 03:33N 01°16' E 103°54'0 0.1
2015-Mar-19 02:33N 01°16' E 103°54'0 0.0
2015-Mar-19 01:33N 01°16' E 103°54'0 0.0
2015-Mar-19 00:32N 01°16' E 103°54'0 0.0
2015-Mar-18 23:33N 01°16' E 103°54'0 0.0
2015-Mar-18 22:33N 01°16' E 103°54'2 1.7
2015-Mar-18 21:33N 01°14' E 103°54'9 8.7
2015-Mar-18 20:32N 01°16' E 104°03'  

Dump ship's entire track history